Terminal Aerodrome Forecast
Issued by NWS Jackson, KY

Home | Current Version | Previous Version | Text Only | Print | Product List | Glossary On
Versions: 1 2 3 4 5 6 7 8 9 10 11 12 13 14 15 16 17 18 19 20 21 22 23 24
594
FTUS43 KJKL 052320
TAFLOZ
TAF
KLOZ 052320Z 0600/0624 06006KT P6SM OVC150
     FM060600 08005KT 3SM -RA SCT015 OVC035
     FM060900 12006KT 2SM RA OVC010
     FM061100 14007KT 2SM RA OVC008
     FM062100 28010G16KT P6SM OVC007=

USA.gov is the U.S. government's official web portal to all federal, state and local government web resources and services.